Map

Track Data

SID SEASON NUMBER BASIN SUBBASIN NAME ISO_TIME NATURE LAT LON WMO_WIND WMO_PRES WMO_AGENCY TRACK_TYPE DIST2LAND LANDFALL IFLAG USA_AGENCY USA_ATCF_ID USA_LAT USA_LON USA_RECORD USA_STATUS USA_WIND USA_PRES USA_SSHS USA_R34_NE USA_R34_SE USA_R34_SW USA_R34_NW USA_R50_NE USA_R50_SE USA_R50_SW USA_R50_NW USA_R64_NE USA_R64_SE USA_R64_SW USA_R64_NW USA_POCI USA_ROCI USA_RMW USA_EYE TOKYO_LAT TOKYO_LON TOKYO_GRADE TOKYO_WIND TOKYO_PRES TOKYO_R50_DIR TOKYO_R50_LONG TOKYO_R50_SHORT TOKYO_R30_DIR TOKYO_R30_LONG TOKYO_R30_SHORT TOKYO_LAND CMA_LAT CMA_LON CMA_CAT CMA_WIND CMA_PRES HKO_LAT HKO_LON HKO_CAT HKO_WIND HKO_PRES NEWDELHI_LAT NEWDELHI_LON NEWDELHI_GRADE NEWDELHI_WIND NEWDELHI_PRES NEWDELHI_CI NEWDELHI_DP NEWDELHI_POCI REUNION_LAT REUNION_LON REUNION_TYPE REUNION_WIND REUNION_PRES REUNION_TNUM REUNION_CI REUNION_RMW REUNION_R34_NE REUNION_R34_SE REUNION_R34_SW REUNION_R34_NW REUNION_R50_NE REUNION_R50_SE REUNION_R50_SW REUNION_R50_NW REUNION_R64_NE REUNION_R64_SE REUNION_R64_SW REUNION_R64_NW BOM_LAT BOM_LON BOM_TYPE BOM_WIND BOM_PRES BOM_TNUM BOM_CI BOM_RMW BOM_R34_NE BOM_R34_SE BOM_R34_SW BOM_R34_NW BOM_R50_NE BOM_R50_SE BOM_R50_SW BOM_R50_NW BOM_R64_NE BOM_R64_SE BOM_R64_SW BOM_R64_NW BOM_ROCI BOM_POCI BOM_EYE BOM_POS_METHOD BOM_PRES_METHOD NADI_LAT NADI_LON NADI_CAT NADI_WIND NADI_PRES WELLINGTON_LAT WELLINGTON_LON WELLINGTON_WIND WELLINGTON_PRES DS824_LAT DS824_LON DS824_STAGE DS824_WIND DS824_PRES TD9636_LAT TD9636_LON TD9636_STAGE TD9636_WIND TD9636_PRES TD9635_LAT TD9635_LON TD9635_WIND TD9635_PRES TD9635_ROCI NEUMANN_LAT NEUMANN_LON NEUMANN_CLASS NEUMANN_WIND NEUMANN_PRES MLC_LAT MLC_LON MLC_CLASS MLC_WIND MLC_PRES USA_GUST BOM_GUST BOM_GUST_PER REUNION_GUST REUNION_GUST_PER USA_SEAHGT USA_SEARAD_NE USA_SEARAD_SE USA_SEARAD_SW USA_SEARAD_NW STORM_SPEED STORM_DIR
1949077S15123 1949 20 SI WA NOT_NAMED 1949-03-17 23:00:00 NR -15.2000 122.900 main 140 140 __________O___ -1 -15.2000 122.900 2 4 266
1949077S15123 1949 20 SI WA NOT_NAMED 1949-03-18 00:00:00 TS -15.2042 122.824 main 145 145 O________OP___ jtwc_sh SH201949 -15.2000 122.800 -1 -15.2000 122.800 TC -15.2084 122.849 2 7 288
1949077S15123 1949 20 SI WA NOT_NAMED 1949-03-18 01:00:00 TS -15.1298 122.672 1001 bom main 158 158 P_____O__PP___ SH201949 -15.2221 122.745 -1 -14.5000 122.000 1001 -15.2221 122.745 TC -15.2167 122.798 2 6 285
1949077S15123 1949 20 SI WA NOT_NAMED 1949-03-18 03:00:00 TS -15.1265 122.521 main 162 162 P_____P__PP___ SH201949 -15.2625 122.638 -1 -14.5044 121.823 -15.2625 122.638 TC -15.2334 122.696 2 4 270
1949077S15123 1949 20 SI WA NOT_NAMED 1949-03-18 06:00:00 TS -15.1311 122.324 main 169 169 O_____P__OP___ jtwc_sh SH201949 -15.3000 122.500 -1 -14.5111 121.559 -15.3000 122.500 TC -15.2584 122.545 2 4 274
1949077S15123 1949 20 SI WA NOT_NAMED 1949-03-18 09:00:00 TS -15.1005 122.124 main 178 178 P_____P__PP___ SH201949 -15.3000 122.400 -1 -14.5187 121.298 -15.3000 122.400 TC -15.2834 122.397 2 3 275
1949077S15123 1949 20 SI WA NOT_NAMED 1949-03-18 11:00:00 TS -15.1046 122.025 main 183 183 P_____P__PO___ SH201949 -15.2969 122.336 -1 -14.5245 121.125 -15.2969 122.336 TC -15.3000 122.300 2 3 267
1949077S15123 1949 20 SI WA NOT_NAMED 1949-03-18 12:00:00 TS -15.1090 121.973 main 183 183 O_____P__OP___ jtwc_sh SH201949 -15.3000 122.300 -1 -14.5277 121.040 -15.3000 122.300 TC -15.3083 122.253 2 3 260
1949077S15123 1949 20 SI WA NOT_NAMED 1949-03-18 15:00:00 TS -15.1431 121.800 main 196 187 P_____P__PP___ SH201949 -15.3500 122.150 -1 -14.5388 120.787 -15.3500 122.150 TC -15.3333 122.115 2 3 258
1949077S15123 1949 20 SI WA NOT_NAMED 1949-03-18 18:00:00 TS -15.1778 121.632 main 201 201 O_____P__OP___ jtwc_sh SH201949 -15.4000 122.000 -1 -14.5528 120.541 -15.4000 122.000 TC -15.3583 121.986 2 3 261
1949077S15123 1949 20 SI WA NOT_NAMED 1949-03-18 21:00:00 TS -15.1884 121.489 main 208 208 P_____P__PP___ SH201949 -15.4000 121.892 -1 -14.5702 120.303 -15.4000 121.892 TC -15.3833 121.869 2 3 266
1949077S15123 1949 20 SI WA NOT_NAMED 1949-03-18 23:00:00 TS -15.1945 121.403 main 216 216 P_____P__PO___ SH201949 -15.3969 121.831 -1 -14.5841 120.149 -15.3969 121.831 TC -15.4000 121.800 7 4 277
1949077S15123 1949 20 SI WA NOT_NAMED 1949-03-19 00:00:00 TS -15.1647 121.286 main 224 224 O_____P__OP___ jtwc_sh SH201949 -15.4000 121.800 -1 -14.5918 120.074 -15.4000 121.800 TC -15.4083 121.767 7 7 283
1949077S15123 1949 20 SI WA NOT_NAMED 1949-03-19 01:00:00 TS -15.1445 121.174 1000 bom main 239 239 P_____O__PP___ SH201949 -15.4136 121.764 -1 -14.6000 120.000 1000 -15.4136 121.764 TC -15.4166 121.736 7 5 275
1949077S15123 1949 20 SI WA NOT_NAMED 1949-03-19 03:00:00 TS -15.1432 121.021 main 255 255 P_____P__PP___ SH201949 -15.4500 121.693 -1 -14.6182 119.856 -15.4500 121.693 TC -15.4333 121.679 7 4 268
1949077S15123 1949 20 SI WA NOT_NAMED 1949-03-19 06:00:00 TS -15.1571 120.833 main 263 263 O_____P__OP___ jtwc_sh SH201949 -15.5000 121.600 -1 -14.6499 119.648 -15.5000 121.600 TC -15.4583 121.604 7 3 263
1949077S15123 1949 20 SI WA NOT_NAMED 1949-03-19 09:00:00 TS -15.1778 120.719 main 270 270 P_____P__PP___ SH201949 -15.5000 121.542 -1 -14.6874 119.450 -15.5000 121.542 TC -15.4833 121.539 7 2 259
1949077S15123 1949 20 SI WA NOT_NAMED 1949-03-19 11:00:00 TS -15.1915 120.649 main 278 278 P_____P__PO___ SH201949 -15.4969 121.514 -1 -14.7158 119.322 -15.4969 121.514 TC -15.5000 121.500 7 2 257
1949077S15123 1949 20 SI WA NOT_NAMED 1949-03-19 12:00:00 TS -15.2000 120.616 main 278 278 O_____P__OP___ jtwc_sh SH201949 -15.5000 121.500 -1 -14.7310 119.259 -15.5000 121.500 TC -15.5058 121.490 7 2 248
1949077S15123 1949 20 SI WA NOT_NAMED 1949-03-19 15:00:00 TS -15.2432 120.521 main 286 278 P_____P__PP___ SH201949 -15.5500 121.458 -1 -14.7811 119.076 -15.5500 121.458 TC -15.5223 121.469 7 2 245
1949077S15123 1949 20 SI WA NOT_NAMED 1949-03-19 18:00:00 TS -15.2896 120.420 main 285 285 O_____P__OP___ jtwc_sh SH201949 -15.6000 121.400 -1 -14.8381 118.898 -15.6000 121.400 TC -15.5422 121.440 7 2 251
1949077S15123 1949 20 SI WA NOT_NAMED 1949-03-19 21:00:00 TS -15.3178 120.305 main 293 293 P_____P__PP___ SH201949 -15.5925 121.322 -1 -14.9024 118.725 -15.5925 121.322 TC -15.5718 121.376 7 2 255
1949077S15123 1949 20 SI WA NOT_NAMED 1949-03-19 23:00:00 TS -15.3415 120.213 main 301 294 P_____P__PO___ SH201949 -15.5912 121.247 -1 -14.9495 118.612 -15.5912 121.247 TC -15.6000 121.300 7 3 253
1949077S15123 1949 20 SI WA NOT_NAMED 1949-03-20 00:00:00 TS -15.3588 120.160 main 294 294 O_____P__OP___ jtwc_sh SH201949 -15.6000 121.200 -1 -14.9743 118.556 -15.6000 121.200 TC -15.6196 121.245 7 3 248
1949077S15123 1949 20 SI WA NOT_NAMED 1949-03-20 01:00:00 TS -15.3832 120.105 995 bom main 302 302 P_____O__PP___ SH201949 -15.6245 121.150 -1 -15.0000 118.500 995 -15.6245 121.150 TC -15.6413 121.182 7 4 244
1949077S15123 1949 20 SI WA NOT_NAMED 1949-03-20 03:00:00 TS -15.4412 119.981 main 310 303 P_____P__PP___ SH201949 -15.6925 121.030 -1 -15.0519 118.384 -15.6925 121.030 TC -15.6897 121.035 7 4 245
1949077S15123 1949 20 SI WA NOT_NAMED 1949-03-20 06:00:00 TS -15.5348 119.769 main 321 321 O_____P__OP___ jtwc_sh SH201949 -15.8000 120.800 -1 -15.1369 118.213 -15.8000 120.800 TC -15.7698 120.778 7 5 249
1949077S15123 1949 20 SI WA NOT_NAMED 1949-03-20 09:00:00 TS -15.6113 119.529 main 342 342 P_____P__PP___ SH201949 -15.8575 120.507 -1 -15.2294 118.045 -15.8575 120.507 TC -15.8505 120.493 7 5 252
1949077S15123 1949 20 SI WA NOT_NAMED 1949-03-20 11:00:00 TS -15.6589 119.363 main 346 346 P_____P__PO___ SH201949 -15.8860 120.300 -1 -15.2946 117.936 -15.8860 120.300 TC -15.9000 120.300 7 5 253
1949077S15123 1949 20 SI WA NOT_NAMED 1949-03-20 12:00:00 TS -15.6816 119.284 main 356 356 O_____P__OP___ jtwc_sh SH201949 -15.9000 120.200 -1 -15.3281 117.881 -15.9000 120.200 TC -15.9175 120.213 7 5 252
1949077S15123 1949 20 SI WA NOT_NAMED 1949-03-20 15:00:00 TS -15.7526 119.067 main 370 370 P_____P__PP___ SH201949 -15.9499 119.950 -1 -15.4320 117.720 -15.9499 119.950 TC -15.9636 119.946 7 4 251
1949077S15123 1949 20 SI WA NOT_NAMED 1949-03-20 18:00:00 TS -15.8247 118.849 main 399 394 O_____P__OP___ jtwc_sh SH201949 -16.0000 119.700 -1 -15.5398 117.562 -16.0000 119.700 TC -16.0072 119.673 7 5 252
1949077S15123 1949 20 SI WA NOT_NAMED 1949-03-20 21:00:00 TS -15.8961 118.613 main 414 414 P_____P__PP___ SH201949 -16.0425 119.407 -1 -15.6503 117.406 -16.0425 119.407 TC -16.0578 119.392 7 5 252
1949077S15123 1949 20 SI WA NOT_NAMED 1949-03-20 23:00:00 TS -15.9485 118.452 main 424 424 P_____P__PO___ SH201949 -16.0776 119.203 -1 -15.7250 117.302 -16.0776 119.203 TC -16.1000 119.200 7 5 251
1949077S15123 1949 20 SI WA NOT_NAMED 1949-03-21 00:00:00 TS -15.9778 118.371 main 430 430 O_____P__OP___ jtwc_sh SH201949 -16.1000 119.100 -1 -15.7625 117.251 -16.1000 119.100 TC -16.1266 119.103 7 5 248
1949077S15123 1949 20 SI WA NOT_NAMED 1949-03-21 01:00:00 TS -16.0089 118.291 980 bom main 440 440 P_____O__PP___ SH201949 -16.1276 119.000 -1 -15.8000 117.200 980 -16.1276 119.000 TC -16.1552 119.006 7 5 247
1949077S15123 1949 20 SI WA NOT_NAMED 1949-03-21 03:00:00 TS -16.0742 118.133 main 456 454 P_____P__PP___ SH201949 -16.1925 118.800 -1 -15.8666 117.103 -16.1925 118.800 TC -16.2174 118.808 7 5 246
1949077S15123 1949 20 SI WA NOT_NAMED 1949-03-21 06:00:00 TS -16.1785 117.896 main 454 450 O_____P__OP___ jtwc_sh SH201949 -16.3000 118.500 -1 -15.9672 116.960 -16.3000 118.500 TC -16.3200 118.507 7 5 246
1949077S15123 1949 20 SI WA NOT_NAMED 1949-03-21 09:00:00 TS -16.2817 117.659 main 450 450 P_____P__PP___ SH201949 -16.4000 118.200 -1 -16.0699 116.819 -16.4000 118.200 TC -16.4280 118.203 7 5 246
1949077S15123 1949 20 SI WA NOT_NAMED 1949-03-21 11:00:00 TS -16.3512 117.500 main 447 447 P_____P__PO___ SH201949 -16.4666 118.000 -1 -16.1400 116.724 -16.4666 118.000 TC -16.5000 118.000 7 5 245
1949077S15123 1949 20 SI WA NOT_NAMED 1949-03-21 12:00:00 TS -16.3857 117.420 main 451 444 O_____P__OP___ jtwc_sh SH201949 -16.5000 117.900 -1 -16.1757 116.677 -16.5000 117.900 TC -16.5333 117.896 7 5 246
1949077S15123 1949 20 SI WA NOT_NAMED 1949-03-21 15:00:00 TS -16.4902 117.180 main 446 440 P_____P__PP___ SH201949 -16.6000 117.600 -1 -16.2859 116.532 -16.6000 117.600 TC -16.6333 117.584 7 5 245
1949077S15123 1949 20 SI WA NOT_NAMED 1949-03-21 18:00:00 TS -16.5968 116.938 main 443 436 O_____P__OP___ jtwc_sh SH201949 -16.7000 117.300 -1 -16.4017 116.383 -16.7000 117.300 TC -16.7333 117.276 7 5 245
1949077S15123 1949 20 SI WA NOT_NAMED 1949-03-21 21:00:00 TS -16.7058 116.690 main 436 425 P_____P__PP___ SH201949 -16.8000 116.985 -1 -16.5242 116.225 -16.8000 116.985 TC -16.8333 116.983 7 5 245
1949077S15123 1949 20 SI WA NOT_NAMED 1949-03-21 23:00:00 TS -16.7800 116.530 main 425 425 P_____P__PO___ SH201949 -16.8667 116.789 -1 -16.6102 116.115 -16.8667 116.789 TC -16.9000 116.800 7 5 244
1949077S15123 1949 20 SI WA NOT_NAMED 1949-03-22 00:00:00 TS -16.8163 116.455 main 425 425 O_____P__OP___ jtwc_sh SH201949 -16.9000 116.700 -1 -16.6546 116.058 -16.9000 116.700 TC -16.9271 116.715 7 5 243
1949077S15123 1949 20 SI WA NOT_NAMED 1949-03-22 01:00:00 TS -16.8520 116.383 970 bom main 415 415 P_____O__PP___ SH201949 -16.9333 116.625 -1 -16.7000 116.000 970 4 -16.9333 116.625 TC -16.9534 116.633 7 5 242
1949077S15123 1949 20 SI WA NOT_NAMED 1949-03-22 03:00:00 TS -16.9226 116.246 main 417 406 P_____P__PP___ SH201949 -16.9999 116.492 -1 -16.7864 115.869 -16.9999 116.492 TC -17.0059 116.476 7 4 241
1949077S15123 1949 20 SI WA NOT_NAMED 1949-03-22 06:00:00 TS -17.0322 116.041 main 409 398 O_____P__OP___ jtwc_sh SH201949 -17.1000 116.300 -1 -16.9215 115.662 -17.1000 116.300 TC -17.0933 116.255 7 5 242
1949077S15123 1949 20 SI WA NOT_NAMED 1949-03-22 09:00:00 TS -17.1404 115.812 main 402 391 P_____P__PP___ SH201949 -17.1775 116.050 -1 -17.0642 115.446 -17.1775 116.050 TC -17.2047 116.042 7 5 242
1949077S15123 1949 20 SI WA NOT_NAMED 1949-03-22 11:00:00 TS -17.2267 115.657 main 394 386 P_____P__PO___ SH201949 -17.2495 115.880 -1 -17.1640 115.298 -17.2495 115.880 TC -17.3000 115.900 7 5 238
1949077S15123 1949 20 SI WA NOT_NAMED 1949-03-22 12:00:00 TS -17.2779 115.578 main 386 372 O_____P__OP___ jtwc_sh SH201949 -17.3000 115.800 -1 -17.2155 115.224 -17.3000 115.800 TC -17.3558 115.814 7 6 230
1949077S15123 1949 20 SI WA NOT_NAMED 1949-03-22 15:00:00 TS -17.4699 115.356 main 372 360 P_____P__PP___ SH201949 -17.5274 115.600 -1 -17.3766 115.001 -17.5274 115.600 TC -17.5498 115.552 7 6 225
1949077S15123 1949 20 SI WA NOT_NAMED 1949-03-22 18:00:00 TS -17.6911 115.139 main 365 350 O_____P__OP___ jtwc_sh SH201949 -17.8000 115.400 -1 -17.5488 114.781 -17.8000 115.400 TC -17.7762 115.304 7 6 224
1949077S15123 1949 20 SI WA NOT_NAMED 1949-03-22 21:00:00 TS -17.9132 114.901 main 356 343 P_____P__PP___ SH201949 -18.0501 115.120 -1 -17.7331 114.568 -18.0501 115.120 TC -18.0256 115.099 7 6 224
1949077S15123 1949 20 SI WA NOT_NAMED 1949-03-22 23:00:00 TS -18.0661 114.762 main 343 343 P_____P__PO___ SH201949 -18.2167 114.957 -1 -17.8634 114.431 -18.2167 114.957 TC -18.2000 115.000 7 6 219
1949077S15123 1949 20 SI WA NOT_NAMED 1949-03-23 00:00:00 TS -18.1427 114.708 main 349 340 O_____P__OP___ jtwc_sh SH201949 -18.3000 114.900 -1 -17.9309 114.365 -18.3000 114.900 TC -18.2824 114.975 7 5 210
1949077S15123 1949 20 SI WA NOT_NAMED 1949-03-23 01:00:00 TS -18.2190 114.667 970 bom main 340 325 P_____O__PP___ SH201949 -18.3807 114.869 -1 -18.0000 114.300 970 -18.3807 114.869 TC -18.3665 114.959 7 5 200
1949077S15123 1949 20 SI WA NOT_NAMED 1949-03-23 03:00:00 TS -18.3742 114.611 main 325 306 P_____P__PP___ SH201949 -18.5424 114.855 -1 -18.1394 114.176 -18.5424 114.855 TC -18.5398 114.950 7 5 194
1949077S15123 1949 20 SI WA NOT_NAMED 1949-03-23 06:00:00 TS -18.6206 114.562 main 306 285 O_____P__OP___ jtwc_sh SH201949 -18.8000 114.900 -1 -18.3606 113.997 -18.8000 114.900 TC -18.8123 114.971 7 5 189
1949077S15123 1949 20 SI WA NOT_NAMED 1949-03-23 09:00:00 TS -18.8865 114.527 main 285 267 P_____P__PP___ SH201949 -19.0850 114.965 -1 -18.5948 113.828 -19.0850 114.965 TC -19.0999 114.999 7 6 187
1949077S15123 1949 20 SI WA NOT_NAMED 1949-03-23 11:00:00 TS -19.0747 114.498 main 267 257 P_____P__PO___ SH201949 -19.2917 114.998 -1 -18.7575 113.721 -19.2917 114.998 TC -19.3000 115.000 7 6 190
1949077S15123 1949 20 SI WA NOT_NAMED 1949-03-23 12:00:00 TS -19.1724 114.476 main 257 237 O_____P__OP___ jtwc_sh SH201949 -19.4000 115.000 -1 -18.8406 113.668 -19.4000 115.000 TC -19.4041 114.985 7 6 196
1949077S15123 1949 20 SI WA NOT_NAMED 1949-03-23 15:00:00 TS -19.4804 114.373 main 237 221 P_____P__PP___ SH201949 -19.7500 114.923 -1 -19.0963 113.519 -19.7500 114.923 TC -19.7283 114.920 7 7 199
1949077S15123 1949 20 SI WA NOT_NAMED 1949-03-23 18:00:00 TS -19.7934 114.250 main 224 193 O_____P__OP___ jtwc_sh SH201949 -20.1000 114.800 -1 -19.3603 113.380 -20.1000 114.800 TC -20.0609 114.825 7 7 200
1949077S15123 1949 20 SI WA NOT_NAMED 1949-03-23 21:00:00 TS -20.0912 114.140 main 197 175 P_____P__PP___ SH201949 -20.4075 114.715 -1 -19.6311 113.253 -20.4075 114.715 TC -20.3894 114.700 7 6 200
1949077S15123 1949 20 SI WA NOT_NAMED 1949-03-23 23:00:00 TS -20.2853 114.060 main 175 167 P_____P__PO___ SH201949 -20.6026 114.645 -1 -19.8146 113.174 -20.6026 114.645 TC -20.6000 114.600 7 6 201
1949077S15123 1949 20 SI WA NOT_NAMED 1949-03-24 00:00:00 TS -20.3813 114.019 main 167 156 O_____P__OP___ jtwc_sh SH201949 -20.7000 114.600 -1 -19.9071 113.136 -20.7000 114.600 TC -20.6995 114.559 7 6 203
1949077S15123 1949 20 SI WA NOT_NAMED 1949-03-24 01:00:00 TS -20.4781 113.973 985 bom main 156 134 P_____O__PP___ SH201949 -20.8026 114.547 -1 -20.0000 113.100 985 -20.8026 114.547 TC -20.7971 114.515 7 6 206
1949077S15123 1949 20 SI WA NOT_NAMED 1949-03-24 03:00:00 TS -20.6690 113.871 main 134 113 P_____P__PP___ SH201949 -21.0075 114.423 -1 -20.1766 113.019 -21.0075 114.423 TC -20.9874 114.419 7 6 209
1949077S15123 1949 20 SI WA NOT_NAMED 1949-03-24 06:00:00 TS -20.9490 113.699 main 116 88 O_____P__OP___ jtwc_sh SH201949 -21.3000 114.200 -1 -20.4460 112.906 -21.3000 114.200 TC -21.2621 114.239 7 6 211
1949077S15123 1949 20 SI WA NOT_NAMED 1949-03-24 09:00:00 TS -21.2154 113.520 main 93 83 P_____P__PP___ SH201949 -21.5574 113.980 -1 -20.7211 112.804 -21.5574 113.980 TC -21.5271 114.000 7 6 214
1949077S15123 1949 20 SI WA NOT_NAMED 1949-03-24 11:00:00 TS -21.3897 113.384 main 83 83 P_____P__PO___ SH201949 -21.7192 113.803 -1 -20.9078 112.743 -21.7192 113.803 TC -21.7000 113.800 7 7 227
1949077S15123 1949 20 SI WA NOT_NAMED 1949-03-24 12:00:00 TS -21.4412 113.264 main 91 91 O_____P__OP___ jtwc_sh SH201949 -21.8000 113.700 -1 -21.0022 112.715 -21.8000 113.700 TC -21.7856 113.685 7 7 234
1949077S15123 1949 20 SI WA NOT_NAMED 1949-03-24 15:00:00 TS -21.6661 112.978 main 103 103 P_____P__PP___ SH201949 -22.0478 113.328 -1 -21.2898 112.639 -22.0478 113.328 TC -22.0396 113.290 7 7 232
1949077S15123 1949 20 SI WA NOT_NAMED 1949-03-24 18:00:00 TS -21.8571 112.689 main 121 121 O_____P__OP___ jtwc_sh SH201949 -22.3000 112.900 -1 -21.5843 112.578 -22.3000 112.900 TC -22.2898 112.835 7 6 232
1949077S15123 1949 20 SI WA NOT_NAMED 1949-03-24 21:00:00 TS -22.0170 112.494 main 131 121 ______P___P___ SH201949 -1 -21.8859 112.533 TC -22.5367 112.340 7 5 216
1949077S15123 1949 20 SI WA NOT_NAMED 1949-03-24 23:00:00 TS -22.1606 112.454 main 121 121 ______P___O___ SH201949 -1 -22.0912 112.513 TC -22.7000 112.000 7 4 175
1949077S15123 1949 20 SI WA NOT_NAMED 1949-03-25 00:00:00 TS -22.1976 112.503 main 121 117 ______P_______ -1 -22.1952 112.505 7 4 163
1949077S15123 1949 20 SI WA NOT_NAMED 1949-03-25 01:00:00 TS -22.3023 112.491 990 bom main 117 113 ______O_______ -1 -22.3000 112.500 990 7 6 188
1949077S15123 1949 20 SI WA NOT_NAMED 1949-03-25 03:00:00 TS -22.5135 112.458 main 113 113 ______P_______ -1 -22.5102 112.462 7 7 188
1949077S15123 1949 20 SI WA NOT_NAMED 1949-03-25 06:00:00 TS -22.8372 112.419 main 125 125 ______P_______ -1 -22.8325 112.415 7 7 185
1949077S15123 1949 20 SI WA NOT_NAMED 1949-03-25 09:00:00 TS -23.1681 112.399 main 136 120 ______P_______ -1 -23.1623 112.385 7 7 0
1949077S15123 1949 20 SI WA NOT_NAMED 1949-03-25 12:00:00 TS -23.5052 112.403 main 120 112 ______P_______ -1 -23.4984 112.379 7 176
1949077S15123 1949 20 SI WA NOT_NAMED 1949-03-25 15:00:00 TS -23.8472 112.436 main 112 93 ______P_______ -1 -23.8397 112.404 7 172
1949077S15123 1949 20 SI WA NOT_NAMED 1949-03-25 18:00:00 TS -24.1931 112.504 main 93 80 ______P_______ -1 -24.1851 112.467 7 167
1949077S15123 1949 20 SI WA NOT_NAMED 1949-03-25 21:00:00 TS -24.5417 112.613 main 81 74 ______P_______ -1 -24.5333 112.574 7 161
1949077S15123 1949 20 SI WA NOT_NAMED 1949-03-26 00:00:00 TS -24.8916 112.767 main 80 80 ______P_______ -1 -24.8832 112.734 8 158
1949077S15123 1949 20 SI WA NOT_NAMED 1949-03-26 01:00:00 TS -25.0045 112.823 995 bom main 81 73 ______O_______ -1 -25.0000 112.800 995 7 154
1949077S15123 1949 20 SI WA NOT_NAMED 1949-03-26 03:00:00 TS -25.2222 112.942 main 74 22 ______P_______ -1 -25.2125 112.928 995 8 150
1949077S15123 1949 20 SI WA NOT_NAMED 1949-03-26 06:00:00 TS -25.5823 113.194 main 22 10 ______P_______ -1 -25.5646 113.188 995 9 147
1949077S15123 1949 20 SI WA NOT_NAMED 1949-03-26 07:00:00 TS -25.7160 113.304 995 bom main 10 9 ______O_______ -1 -25.7000 113.300 995 11 142
1949077S15123 1949 20 SI WA NOT_NAMED 1949-03-26 09:00:00 TS -26.0158 113.565 main 0 0 ______P_______ -1 -26.0054 113.565 12 141
1949077S15123 1949 20 SI WA NOT_NAMED 1949-03-26 12:00:00 TS -26.5142 114.023 main 0 0 ______P_______ -1 -26.5213 114.034 13 140
1949077S15123 1949 20 SI WA NOT_NAMED 1949-03-26 13:00:00 NR -26.7000 114.200 bom main 0 ______O_______ -1 -26.7000 114.200 15 140

About IBTrACS Database

This database is a web-friendly format of International Best Track Archive for Climate Stewardship (IBTrACS), a global best track data archive curated by NOAA dating back to 1842.

Updated: 2021-12-03